Ken Boothe Sr — WDG3360 — position and weather

sailwx.info

Track history (hours):
 
Tides and Currents Weather Stations Pressure Air Temp Water Temp Dewpoint Dewpoint Depression Visibility Wind Speed Wind Dir Waves Ship Positions

Ken Boothe Sr

More information available from US FCC via Universal Licensing System and Coast Guard Vessel Documentation Center.

Last reported at 2014-Jul-27 08:19 UTC. Time now 2014-Jul-29 12:55 UTC.
Position N 46°60' W 085°44'.

Length 30 m; draft 6 m.

Type: Towing. MMSI: 367525230.

Date/timePositionNaut miles runAvg speedWind from/ knotsBaromVisibWave heightAir tempDewpointWater temp
2014-Jul-27 08:19N 46°60' W 085°44'99 7.7
2014-Jul-26 19:31N 45°56' W 083°53'  
2014-Jul-22 16:33N 45°57' W 083°53'12 9.5
2014-Jul-22 15:18N 46°07' W 084°01'810.1
2014-Jul-22 14:32N 46°13' W 084°09'8 5.8
2014-Jul-22 13:06N 46°21' W 084°13'13 3.6
2014-Jul-22 09:33N 46°29' W 084°27'9 8.2
2014-Jul-22 08:29N 46°32' W 084°39'1211.8
2014-Jul-22 07:29N 46°41' W 084°49'1111.6
2014-Jul-22 06:33N 46°50' W 084°59'1212.0
2014-Jul-22 05:33N 46°54' W 085°15'  
2014-Jul-19 06:22N 47°01' W 085°50'1012.2
2014-Jul-19 05:33N 46°58' W 085°37'1212.1
2014-Jul-19 04:33N 46°54' W 085°20'1511.8
2014-Jul-19 03:18N 46°48' W 084°60'2511.5
2014-Jul-19 01:07N 46°29' W 084°36'11 0.7
2014-Jul-18 09:33N 46°30' W 084°20'0 0.0
2014-Jul-18 08:33N 46°30' W 084°20'0 0.0
2014-Jul-18 07:33N 46°30' W 084°20'0 0.0
2014-Jul-18 06:33N 46°30' W 084°20'0 0.0
2014-Jul-18 05:15N 46°30' W 084°20'0 0.0
2014-Jul-18 04:33N 46°30' W 084°20'1 0.0
2014-Jul-17 09:03N 46°29' W 084°18'3 6.2
2014-Jul-17 08:32N 46°27' W 084°16'  
Track history (hours):
 
Tides and Currents Weather Stations Pressure Air Temp Water Temp Dewpoint Dewpoint Depression Visibility Wind Speed Wind Dir Waves Ship Positions

Ken Boothe Sr

More information available from US FCC via Universal Licensing System and Coast Guard Vessel Documentation Center.

Last reported at 2014-Jul-27 08:19 UTC. Time now 2014-Jul-29 12:55 UTC.
Position N 46°60' W 085°44'.

Length 30 m; draft 6 m.

Type: Towing. MMSI: 367525230.

Date/timePositionNaut miles runAvg speedWind from/ knotsBaromVisibWave heightAir tempDewpointWater temp
2014-Jul-27 08:19N 46°60' W 085°44'99 7.7
2014-Jul-26 19:31N 45°56' W 083°53'  
2014-Jul-22 16:33N 45°57' W 083°53'12 9.5
2014-Jul-22 15:18N 46°07' W 084°01'810.1
2014-Jul-22 14:32N 46°13' W 084°09'8 5.8
2014-Jul-22 13:06N 46°21' W 084°13'13 3.6
2014-Jul-22 09:33N 46°29' W 084°27'9 8.2
2014-Jul-22 08:29N 46°32' W 084°39'1211.8
2014-Jul-22 07:29N 46°41' W 084°49'1111.6
2014-Jul-22 06:33N 46°50' W 084°59'1212.0
2014-Jul-22 05:33N 46°54' W 085°15'  
2014-Jul-19 06:22N 47°01' W 085°50'1012.2
2014-Jul-19 05:33N 46°58' W 085°37'1212.1
2014-Jul-19 04:33N 46°54' W 085°20'1511.8
2014-Jul-19 03:18N 46°48' W 084°60'2511.5
2014-Jul-19 01:07N 46°29' W 084°36'11 0.7
2014-Jul-18 09:33N 46°30' W 084°20'0 0.0
2014-Jul-18 08:33N 46°30' W 084°20'0 0.0
2014-Jul-18 07:33N 46°30' W 084°20'0 0.0
2014-Jul-18 06:33N 46°30' W 084°20'0 0.0
2014-Jul-18 05:15N 46°30' W 084°20'0 0.0
2014-Jul-18 04:33N 46°30' W 084°20'1 0.0
2014-Jul-17 09:03N 46°29' W 084°18'3 6.2
2014-Jul-17 08:32N 46°27' W 084°16'  

Dump ship's entire track history